sensor_id;sensor_type;location;lat;lon;timestamp;pressure;altitude;pressure_sealevel;temperature;humidity
27587;BME280;15019;49.002;8.420;2022-09-12T00:00:48;100328.41;;;16.05;100.00
27587;BME280;15019;49.002;8.420;2022-09-12T00:03:14;100324.19;;;16.04;100.00
27587;BME280;15019;49.002;8.420;2022-09-12T00:05:40;100325.22;;;15.95;100.00
27587;BME280;15019;49.002;8.420;2022-09-12T00:08:05;100318.41;;;15.96;100.00
27587;BME280;15019;49.002;8.420;2022-09-12T00:10:30;100318.44;;;15.93;100.00
27587;BME280;15019;49.002;8.420;2022-09-12T00:12:55;100315.91;;;15.91;100.00
27587;BME280;15019;49.002;8.420;2022-09-12T00:15:21;100316.84;;;15.89;100.00
27587;BME280;15019;49.002;8.420;2022-09-12T00:17:46;100315.16;;;15.88;100.00
27587;BME280;15019;49.002;8.420;2022-09-12T00:20:11;100315.22;;;15.85;100.00
27587;BME280;15019;49.002;8.420;2022-09-12T00:22:36;100318.78;;;15.78;100.00
27587;BME280;15019;49.002;8.420;2022-09-12T00:25:02;100312.06;;;15.73;100.00
27587;BME280;15019;49.002;8.420;2022-09-12T00:27:28;100312.06;;;15.73;100.00
27587;BME280;15019;49.002;8.420;2022-09-12T00:29:53;100313.75;;;15.74;100.00
27587;BME280;15019;49.002;8.420;2022-09-12T00:32:18;100309.63;;;15.67;100.00
27587;BME280;15019;49.002;8.420;2022-09-12T00:34:44;100303.72;;;15.65;100.00
27587;BME280;15019;49.002;8.420;2022-09-12T00:37:10;100301.34;;;15.56;100.00
27587;BME280;15019;49.002;8.420;2022-09-12T00:39:35;100293.84;;;15.46;100.00
27587;BME280;15019;49.002;8.420;2022-09-12T00:42:00;100299.03;;;15.41;100.00
27587;BME280;15019;49.002;8.420;2022-09-12T00:46:56;100294.06;;;15.35;100.00
27587;BME280;15019;49.002;8.420;2022-09-12T00:49:28;100292.47;;;15.28;100.00
27587;BME280;15019;49.002;8.420;2022-09-12T00:57:10;100281.72;;;15.14;100.00
27587;BME280;15019;49.002;8.420;2022-09-12T00:59:39;100288.41;;;15.19;100.00
27587;BME280;15019;49.002;8.420;2022-09-12T01:02:05;100287.59;;;15.16;100.00
27587;BME280;15019;49.002;8.420;2022-09-12T01:04:31;100285.88;;;15.18;100.00
27587;BME280;15019;49.002;8.420;2022-09-12T01:06:56;100281.63;;;15.17;100.00
27587;BME280;15019;49.002;8.420;2022-09-12T01:09:22;100282.50;;;15.16;100.00
27587;BME280;15019;49.002;8.420;2022-09-12T01:11:48;100280.75;;;15.18;100.00
27587;BME280;15019;49.002;8.420;2022-09-12T01:14:15;100277.34;;;15.19;100.00
27587;BME280;15019;49.002;8.420;2022-09-12T01:16:40;100282.44;;;15.19;100.00
27587;BME280;15019;49.002;8.420;2022-09-12T01:32:09;100263.47;;;15.32;100.00
27587;BME280;15019;49.002;8.420;2022-09-12T01:40:06;100267.06;;;15.22;100.00
27587;BME280;15019;49.002;8.420;2022-09-12T01:42:37;100259.50;;;15.16;100.00
27587;BME280;15019;49.002;8.420;2022-09-12T01:45:15;100261.28;;;15.14;100.00
27587;BME280;15019;49.002;8.420;2022-09-12T01:50:27;100261.56;;;14.97;100.00
27587;BME280;15019;49.002;8.420;2022-09-12T01:55:23;100251.41;;;14.94;100.00
27587;BME280;15019;49.002;8.420;2022-09-12T01:57:56;100247.16;;;14.94;100.00
27587;BME280;15019;49.002;8.420;2022-09-12T02:00:24;100244.53;;;14.99;100.00
27587;BME280;15019;49.002;8.420;2022-09-12T02:02:51;100244.53;;;14.99;100.00
27587;BME280;15019;49.002;8.420;2022-09-12T02:05:27;100240.31;;;14.96;100.00
27587;BME280;15019;49.002;8.420;2022-09-12T02:08:03;100240.44;;;14.90;100.00
27587;BME280;15019;49.002;8.420;2022-09-12T02:10:31;100242.13;;;14.91;100.00
27587;BME280;15019;49.002;8.420;2022-09-12T02:13:09;100243.06;;;14.86;100.00
27587;BME280;15019;49.002;8.420;2022-09-12T02:15:39;100238.84;;;14.83;100.00
27587;BME280;15019;49.002;8.420;2022-09-12T02:18:04;100225.41;;;14.74;100.00
27587;BME280;15019;49.002;8.420;2022-09-12T02:20:33;100228.88;;;14.71;100.00
27587;BME280;15019;49.002;8.420;2022-09-12T02:22:59;100230.63;;;14.69;100.00
27587;BME280;15019;49.002;8.420;2022-09-12T02:25:24;100225.56;;;14.66;100.00
27587;BME280;15019;49.002;8.420;2022-09-12T02:27:53;100228.13;;;14.66;100.00
27587;BME280;15019;49.002;8.420;2022-09-12T02:30:20;100225.59;;;14.63;100.00
27587;BME280;15019;49.002;8.420;2022-09-12T02:33:05;100218.06;;;14.58;100.00
27587;BME280;15019;49.002;8.420;2022-09-12T02:38:01;100218.13;;;14.52;100.00
27587;BME280;15019;49.002;8.420;2022-09-12T02:40:28;100223.22;;;14.54;100.00
27587;BME280;15019;49.002;8.420;2022-09-12T02:42:54;100229.19;;;14.53;100.00
27587;BME280;15019;49.002;8.420;2022-09-12T02:45:19;100224.16;;;14.50;100.00
27587;BME280;15019;49.002;8.420;2022-09-12T02:47:48;100226.88;;;14.41;100.00
27587;BME280;15019;49.002;8.420;2022-09-12T02:50:14;100226.09;;;14.33;100.00
27587;BME280;15019;49.002;8.420;2022-09-12T02:52:40;100226.09;;;14.33;100.00
27587;BME280;15019;49.002;8.420;2022-09-12T02:55:06;100216.00;;;14.26;100.00
27587;BME280;15019;49.002;8.420;2022-09-12T02:57:31;100227.91;;;14.27;100.00
27587;BME280;15019;49.002;8.420;2022-09-12T02:59:58;100221.06;;;14.29;100.00
27587;BME280;15019;49.002;8.420;2022-09-12T03:02:26;100225.44;;;14.20;100.00
27587;BME280;15019;49.002;8.420;2022-09-12T03:09:58;100219.63;;;14.13;100.00
27587;BME280;15019;49.002;8.420;2022-09-12T03:12:31;100223.00;;;14.15;100.00
27587;BME280;15019;49.002;8.420;2022-09-12T03:22:51;100206.13;;;14.07;100.00
27587;BME280;15019;49.002;8.420;2022-09-12T03:25:27;100212.16;;;14.01;100.00
27587;BME280;15019;49.002;8.420;2022-09-12T03:27:58;100214.78;;;13.98;100.00
27587;BME280;15019;49.002;8.420;2022-09-12T03:30:25;100202.03;;;13.98;100.00
27587;BME280;15019;49.002;8.420;2022-09-12T03:32:51;100214.66;;;14.04;100.00
27587;BME280;15019;49.002;8.420;2022-09-12T03:35:17;100213.84;;;14.02;100.00
27587;BME280;15019;49.002;8.420;2022-09-12T03:37:43;100216.38;;;14.04;100.00
27587;BME280;15019;49.002;8.420;2022-09-12T03:40:09;100223.13;;;14.06;100.00
27587;BME280;15019;49.002;8.420;2022-09-12T03:42:34;100217.22;;;14.04;100.00
27587;BME280;15019;49.002;8.420;2022-09-12T03:44:59;100218.13;;;14.00;100.00
27587;BME280;15019;49.002;8.420;2022-09-12T03:47:25;100220.69;;;13.99;100.00
27587;BME280;15019;49.002;8.420;2022-09-12T03:49:51;100216.44;;;13.99;100.00
27587;BME280;15019;49.002;8.420;2022-09-12T03:52:16;100210.53;;;13.97;100.00
27587;BME280;15019;49.002;8.420;2022-09-12T03:54:41;100209.69;;;13.98;100.00
27587;BME280;15019;49.002;8.420;2022-09-12T03:57:06;100213.97;;;13.95;100.00
27587;BME280;15019;49.002;8.420;2022-09-12T03:59:32;100219.94;;;13.92;100.00
27587;BME280;15019;49.002;8.420;2022-09-12T04:01:57;100221.63;;;13.93;100.00
27587;BME280;15019;49.002;8.420;2022-09-12T04:04:22;100222.47;;;13.93;100.00
27587;BME280;15019;49.002;8.420;2022-09-12T04:06:47;100223.34;;;13.91;100.00
27587;BME280;15019;49.002;8.420;2022-09-12T04:09:12;100218.28;;;13.88;100.00
27587;BME280;15019;49.002;8.420;2022-09-12T04:11:38;100221.66;;;13.90;100.00
27587;BME280;15019;49.002;8.420;2022-09-12T04:14:03;100220.84;;;13.88;100.00
27587;BME280;15019;49.002;8.420;2022-09-12T04:16:28;100213.25;;;13.85;100.00
27587;BME280;15019;49.002;8.420;2022-09-12T04:18:53;100211.56;;;13.84;100.00
27587;BME280;15019;49.002;8.420;2022-09-12T04:21:19;100213.34;;;13.79;100.00
27587;BME280;15019;49.002;8.420;2022-09-12T04:23:44;100210.75;;;13.83;100.00
27587;BME280;15019;49.002;8.420;2022-09-12T04:26:10;100212.41;;;13.84;100.00
27587;BME280;15019;49.002;8.420;2022-09-12T04:28:36;100205.69;;;13.79;100.00
27587;BME280;15019;49.002;8.420;2022-09-12T04:31:09;100202.41;;;13.72;100.00
27587;BME280;15019;49.002;8.420;2022-09-12T04:33:35;100206.69;;;13.69;100.00
27587;BME280;15019;49.002;8.420;2022-09-12T04:36:04;100210.09;;;13.68;100.00
27587;BME280;15019;49.002;8.420;2022-09-12T04:38:31;100202.38;;;13.74;100.00
27587;BME280;15019;49.002;8.420;2022-09-12T04:40:56;100203.22;;;13.76;100.00
27587;BME280;15019;49.002;8.420;2022-09-12T04:43:21;100199.00;;;13.73;100.00
27587;BME280;15019;49.002;8.420;2022-09-12T04:45:47;100203.25;;;13.73;100.00
27587;BME280;15019;49.002;8.420;2022-09-12T04:48:12;100197.34;;;13.68;100.00
27587;BME280;15019;49.002;8.420;2022-09-12T04:50:37;100194.78;;;13.71;100.00
27587;BME280;15019;49.002;8.420;2022-09-12T04:53:02;100198.97;;;13.75;100.00
27587;BME280;15019;49.002;8.420;2022-09-12T04:55:28;100199.84;;;13.74;100.00
27587;BME280;15019;49.002;8.420;2022-09-12T04:57:53;100198.16;;;13.73;100.00
27587;BME280;15019;49.002;8.420;2022-09-12T05:00:18;100202.28;;;13.78;100.00
27587;BME280;15019;49.002;8.420;2022-09-12T05:02:43;100199.84;;;13.74;100.00
27587;BME280;15019;49.002;8.420;2022-09-12T05:05:11;100204.06;;;13.75;100.00
27587;BME280;15019;49.002;8.420;2022-09-12T05:07:36;100203.25;;;13.73;100.00
27587;BME280;15019;49.002;8.420;2022-09-12T05:10:02;100205.78;;;13.74;100.00
27587;BME280;15019;49.002;8.420;2022-09-12T05:12:27;100203.22;;;13.76;100.00
27587;BME280;15019;49.002;8.420;2022-09-12T05:14:52;100204.91;;;13.77;100.00
27587;BME280;15019;49.002;8.420;2022-09-12T05:17:18;100214.34;;;13.67;100.00
27587;BME280;15019;49.002;8.420;2022-09-12T05:19:43;100213.47;;;13.70;100.00
27587;BME280;15019;49.002;8.420;2022-09-12T05:22:08;100213.44;;;13.73;100.00
27587;BME280;15019;49.002;8.420;2022-09-12T05:24:33;100213.44;;;13.73;100.00
27587;BME280;15019;49.002;8.420;2022-09-12T05:26:59;100212.56;;;13.75;100.00
27587;BME280;15019;49.002;8.420;2022-09-12T05:29:24;100215.03;;;13.80;100.00
27587;BME280;15019;49.002;8.420;2022-09-12T05:31:50;100219.22;;;13.85;100.00
27587;BME280;15019;49.002;8.420;2022-09-12T05:34:16;100216.59;;;13.88;100.00
27587;BME280;15019;49.002;8.420;2022-09-12T05:36:41;100218.28;;;13.88;100.00
27587;BME280;15019;49.002;8.420;2022-09-12T05:39:06;100216.53;;;13.95;100.00
27587;BME280;15019;49.002;8.420;2022-09-12T05:41:31;100221.59;;;13.96;100.00
27587;BME280;15019;49.002;8.420;2022-09-12T05:43:58;100221.59;;;13.96;100.00
27587;BME280;15019;49.002;8.420;2022-09-12T05:46:25;100232.56;;;14.00;100.00
27587;BME280;15019;49.002;8.420;2022-09-12T05:48:50;100229.13;;;14.02;100.00
27587;BME280;15019;49.002;8.420;2022-09-12T05:51:18;100228.22;;;14.08;100.00
27587;BME280;15019;49.002;8.420;2022-09-12T05:53:44;100222.28;;;14.07;100.00
27587;BME280;15019;49.002;8.420;2022-09-12T05:56:10;100222.22;;;14.10;100.00
27587;BME280;15019;49.002;8.420;2022-09-12T05:58:36;100220.50;;;14.11;100.00
27587;BME280;15019;49.002;8.420;2022-09-12T06:01:06;100228.28;;;14.03;100.00
27587;BME280;15019;49.002;8.420;2022-09-12T06:03:31;100222.28;;;14.06;100.00
27587;BME280;15019;49.002;8.420;2022-09-12T06:05:59;100223.84;;;14.14;100.00
27587;BME280;15019;49.002;8.420;2022-09-12T06:08:25;100228.09;;;14.15;100.00
27587;BME280;15019;49.002;8.420;2022-09-12T06:10:50;100236.41;;;14.28;100.00
27587;BME280;15019;49.002;8.420;2022-09-12T06:13:15;100227.81;;;14.30;100.00
27587;BME280;15019;49.002;8.420;2022-09-12T06:15:40;100230.34;;;14.32;100.00
27587;BME280;15019;49.002;8.420;2022-09-12T06:18:05;100230.22;;;14.41;100.00
27587;BME280;15019;49.002;8.420;2022-09-12T06:20:30;100236.97;;;14.45;100.00
27587;BME280;15019;49.002;8.420;2022-09-12T06:22:56;100234.03;;;14.68;100.00
27587;BME280;15019;49.002;8.420;2022-09-12T06:25:21;100241.78;;;15.51;100.00
27587;BME280;15019;49.002;8.420;2022-09-12T06:27:46;100234.94;;;16.29;100.00
27587;BME280;15019;49.002;8.420;2022-09-12T06:30:12;100236.69;;;16.61;100.00
27587;BME280;15019;49.002;8.420;2022-09-12T06:32:37;100244.16;;;17.32;97.05
27587;BME280;15019;49.002;8.420;2022-09-12T06:35:03;100229.88;;;16.94;98.94
27587;BME280;15019;49.002;8.420;2022-09-12T06:37:31;100228.44;;;16.50;100.00
27587;BME280;15019;49.002;8.420;2022-09-12T06:39:56;100222.00;;;16.33;100.00
27587;BME280;15019;49.002;8.420;2022-09-12T06:42:21;100220.97;;;16.42;100.00
27587;BME280;15019;49.002;8.420;2022-09-12T06:44:47;100221.41;;;16.90;98.87
27587;BME280;15019;49.002;8.420;2022-09-12T06:47:12;100228.53;;;17.11;97.88
27587;BME280;15019;49.002;8.420;2022-09-12T06:49:37;100225.41;;;17.00;98.67
27587;BME280;15019;49.002;8.420;2022-09-12T06:52:02;100220.47;;;16.94;100.00
27587;BME280;15019;49.002;8.420;2022-09-12T06:54:27;100224.47;;;17.04;98.05
27587;BME280;15019;49.002;8.420;2022-09-12T06:56:54;100229.19;;;16.87;99.63
27587;BME280;15019;49.002;8.420;2022-09-12T06:59:19;100227.59;;;16.83;99.38
27587;BME280;15019;49.002;8.420;2022-09-12T07:01:44;100235.03;;;16.92;98.87
27587;BME280;15019;49.002;8.420;2022-09-12T07:04:10;100230.53;;;17.00;99.81
27587;BME280;15019;49.002;8.420;2022-09-12T07:06:36;100235.47;;;17.06;98.47
27587;BME280;15019;49.002;8.420;2022-09-12T07:09:06;100226.56;;;17.19;97.18
27587;BME280;15019;49.002;8.420;2022-09-12T07:11:32;100237.28;;;17.34;96.48
27587;BME280;15019;49.002;8.420;2022-09-12T07:13:58;100234.50;;;18.51;91.73
27587;BME280;15019;49.002;8.420;2022-09-12T07:16:24;100237.06;;;19.71;82.38
27587;BME280;15019;49.002;8.420;2022-09-12T07:18:51;100236.41;;;20.92;76.04
27587;BME280;15019;49.002;8.420;2022-09-12T07:21:17;100248.97;;;21.93;72.31
27587;BME280;15019;49.002;8.420;2022-09-12T07:23:42;100255.34;;;22.91;66.45
27587;BME280;15019;49.002;8.420;2022-09-12T07:26:11;100251.78;;;21.89;73.52
27587;BME280;15019;49.002;8.420;2022-09-12T07:28:37;100248.81;;;23.50;65.57
27587;BME280;15019;49.002;8.420;2022-09-12T07:31:07;100261.00;;;23.80;64.50
27587;BME280;15019;49.002;8.420;2022-09-12T07:33:32;100253.38;;;22.96;65.63
27587;BME280;15019;49.002;8.420;2022-09-12T07:36:05;100248.22;;;22.27;67.55
27587;BME280;15019;49.002;8.420;2022-09-12T07:38:30;100237.56;;;21.80;71.84
27587;BME280;15019;49.002;8.420;2022-09-12T07:40:56;100242.72;;;21.62;72.32
27587;BME280;15019;49.002;8.420;2022-09-12T07:43:21;100227.59;;;20.57;74.46
27587;BME280;15019;49.002;8.420;2022-09-12T07:45:46;100224.00;;;20.19;78.74
27587;BME280;15019;49.002;8.420;2022-09-12T07:48:12;100238.59;;;20.19;78.29
27587;BME280;15019;49.002;8.420;2022-09-12T07:50:37;100233.72;;;20.13;78.17
27587;BME280;15019;49.002;8.420;2022-09-12T07:53:02;100237.03;;;20.15;77.93
27587;BME280;15019;49.002;8.420;2022-09-12T07:55:28;100229.63;;;20.07;78.89
27587;BME280;15019;49.002;8.420;2022-09-12T07:57:53;100229.16;;;19.76;81.14
27587;BME280;15019;49.002;8.420;2022-09-12T08:00:18;100234.28;;;19.54;82.44
27587;BME280;15019;49.002;8.420;2022-09-12T08:02:43;100230.84;;;19.55;84.14
27587;BME280;15019;49.002;8.420;2022-09-12T08:05:09;100231.91;;;19.71;80.55
27587;BME280;15019;49.002;8.420;2022-09-12T08:07:34;100239.53;;;19.51;82.35
27587;BME280;15019;49.002;8.420;2022-09-12T08:09:59;100242.06;;;19.52;83.95
27587;BME280;15019;49.002;8.420;2022-09-12T08:12:26;100243.22;;;19.44;84.64
27587;BME280;15019;49.002;8.420;2022-09-12T08:14:51;100244.38;;;19.60;83.70
27587;BME280;15019;49.002;8.420;2022-09-12T08:17:16;100238.03;;;19.68;83.52
27587;BME280;15019;49.002;8.420;2022-09-12T08:19:42;100236.63;;;19.82;83.56
27587;BME280;15019;49.002;8.420;2022-09-12T08:22:07;100242.75;;;19.79;84.19
27587;BME280;15019;49.002;8.420;2022-09-12T08:24:32;100243.41;;;19.62;85.54
27587;BME280;15019;49.002;8.420;2022-09-12T08:26:57;100245.44;;;19.76;85.53
27587;BME280;15019;49.002;8.420;2022-09-12T08:29:23;100244.25;;;20.06;84.33
27587;BME280;15019;49.002;8.420;2022-09-12T08:31:48;100243.88;;;20.16;81.50
27587;BME280;15019;49.002;8.420;2022-09-12T08:34:13;100242.44;;;20.08;80.78
27587;BME280;15019;49.002;8.420;2022-09-12T08:36:38;100242.19;;;20.15;82.39
27587;BME280;15019;49.002;8.420;2022-09-12T08:39:04;100241.63;;;20.08;81.91
27587;BME280;15019;49.002;8.420;2022-09-12T08:49:33;100235.19;;;20.60;78.57
27587;BME280;15019;49.002;8.420;2022-09-12T08:52:08;100234.56;;;20.55;78.98
27587;BME280;15019;49.002;8.420;2022-09-12T08:54:36;100227.28;;;20.65;78.57
27587;BME280;15019;49.002;8.420;2022-09-12T08:57:02;100223.22;;;20.59;78.80
27587;BME280;15019;49.002;8.420;2022-09-12T08:59:29;100227.97;;;20.48;80.94
27587;BME280;15019;49.002;8.420;2022-09-12T09:01:57;100227.47;;;20.40;81.18
27587;BME280;15019;49.002;8.420;2022-09-12T09:07:07;100231.06;;;20.36;82.06
27587;BME280;15019;49.002;8.420;2022-09-12T09:12:39;100230.56;;;20.48;83.84
27587;BME280;15019;49.002;8.420;2022-09-12T09:17:26;100228.72;;;20.30;83.76
27587;BME280;15019;49.002;8.420;2022-09-12T09:20:10;100224.09;;;20.58;82.70
27587;BME280;15019;49.002;8.420;2022-09-12T09:22:41;100232.97;;;20.92;85.61
27587;BME280;15019;49.002;8.420;2022-09-12T09:25:10;100233.78;;;21.12;81.26
27587;BME280;15019;49.002;8.420;2022-09-12T09:27:44;100233.69;;;21.34;80.47
27587;BME280;15019;49.002;8.420;2022-09-12T09:30:14;100231.09;;;21.72;78.76
27587;BME280;15019;49.002;8.420;2022-09-12T09:32:40;100233.25;;;21.62;74.21
27587;BME280;15019;49.002;8.420;2022-09-12T09:37:49;100230.47;;;21.67;77.61
27587;BME280;15019;49.002;8.420;2022-09-12T09:40:21;100229.66;;;21.47;78.93
27587;BME280;15019;49.002;8.420;2022-09-12T09:45:20;100219.03;;;21.53;82.54
27587;BME280;15019;49.002;8.420;2022-09-12T09:48:32;100227.34;;;21.60;83.17
27587;BME280;15019;49.002;8.420;2022-09-12T09:50:31;100221.53;;;22.27;74.84
27587;BME280;15019;49.002;8.420;2022-09-12T09:52:56;100225.25;;;22.73;71.08
27587;BME280;15019;49.002;8.420;2022-09-12T09:55:25;100226.19;;;23.05;70.13
27587;BME280;15019;49.002;8.420;2022-09-12T09:57:52;100218.03;;;23.13;70.42
27587;BME280;15019;49.002;8.420;2022-09-12T10:00:21;100226.41;;;23.49;67.58
27587;BME280;15019;49.002;8.420;2022-09-12T10:05:51;100217.00;;;24.39;64.98
27587;BME280;15019;49.002;8.420;2022-09-12T10:13:23;100216.47;;;24.49;65.91
27587;BME280;15019;49.002;8.420;2022-09-12T10:15:56;100220.22;;;24.87;64.14
27587;BME280;15019;49.002;8.420;2022-09-12T10:18:36;100213.94;;;25.05;64.86
27587;BME280;15019;49.002;8.420;2022-09-12T10:21:11;100204.97;;;24.97;67.01
27587;BME280;15019;49.002;8.420;2022-09-12T10:23:38;100208.47;;;25.65;62.13
27587;BME280;15019;49.002;8.420;2022-09-12T10:26:07;100209.25;;;25.80;59.51
27587;BME280;15019;49.002;8.420;2022-09-12T10:28:34;100202.06;;;25.30;64.23
27587;BME280;15019;49.002;8.420;2022-09-12T10:31:01;100197.59;;;25.32;64.46
27587;BME280;15019;49.002;8.420;2022-09-12T10:33:26;100189.66;;;25.21;63.68
27587;BME280;15019;49.002;8.420;2022-09-12T10:35:52;100199.06;;;25.36;59.43
27587;BME280;15019;49.002;8.420;2022-09-12T10:38:25;100201.41;;;25.67;59.62
27587;BME280;15019;49.002;8.420;2022-09-12T10:40:54;100189.84;;;24.75;64.41
27587;BME280;15019;49.002;8.420;2022-09-12T10:43:33;100192.75;;;25.40;61.67
27587;BME280;15019;49.002;8.420;2022-09-12T10:46:21;100189.72;;;26.14;58.17
27587;BME280;15019;49.002;8.420;2022-09-12T10:48:45;100182.28;;;26.47;58.51
27587;BME280;15019;49.002;8.420;2022-09-12T10:51:26;100184.09;;;26.20;56.77
27587;BME280;15019;49.002;8.420;2022-09-12T10:54:01;100179.25;;;26.28;58.57
27587;BME280;15019;49.002;8.420;2022-09-12T10:56:50;100171.06;;;25.95;57.78
27587;BME280;15019;49.002;8.420;2022-09-12T11:20:52;100142.84;;;25.63;56.82
27587;BME280;15019;49.002;8.420;2022-09-12T11:35:47;100140.34;;;25.21;56.13
27587;BME280;15019;49.002;8.420;2022-09-12T11:38:18;100130.19;;;24.89;58.04
27587;BME280;15019;49.002;8.420;2022-09-12T11:40:55;100123.16;;;24.63;59.24
27587;BME280;15019;49.002;8.420;2022-09-12T11:45:51;100121.97;;;24.68;58.91
27587;BME280;15019;49.002;8.420;2022-09-12T11:48:34;100116.88;;;24.67;60.48
27587;BME280;15019;49.002;8.420;2022-09-12T11:51:03;100112.06;;;24.47;60.57
27587;BME280;15019;49.002;8.420;2022-09-12T11:53:32;100117.59;;;24.69;61.33
27587;BME280;15019;49.002;8.420;2022-09-12T11:56:05;100110.31;;;24.47;64.45
27587;BME280;15019;49.002;8.420;2022-09-12T11:58:32;100110.47;;;24.58;64.80
27587;BME280;15019;49.002;8.420;2022-09-12T12:01:40;100100.38;;;24.68;59.23
27587;BME280;15019;49.002;8.420;2022-09-12T12:03:46;100100.38;;;24.68;61.17
27587;BME280;15019;49.002;8.420;2022-09-12T12:06:20;100100.91;;;24.87;61.19
27587;BME280;15019;49.002;8.420;2022-09-12T12:08:46;100090.00;;;24.96;55.23
27587;BME280;15019;49.002;8.420;2022-09-12T12:11:15;100093.31;;;24.98;56.10
27587;BME280;15019;49.002;8.420;2022-09-12T12:13:54;100093.69;;;24.78;59.99
27587;BME280;15019;49.002;8.420;2022-09-12T12:18:51;100094.06;;;24.86;56.92
27587;BME280;15019;49.002;8.420;2022-09-12T12:21:19;100081.50;;;24.66;54.54
27587;BME280;15019;49.002;8.420;2022-09-12T12:29:08;100075.56;;;24.78;59.56
27587;BME280;15019;49.002;8.420;2022-09-12T12:32:14;100074.25;;;24.71;58.87
27587;BME280;15019;49.002;8.420;2022-09-12T12:34:21;100076.56;;;24.75;55.68
27587;BME280;15019;49.002;8.420;2022-09-12T12:36:50;100070.38;;;24.78;54.20
27587;BME280;15019;49.002;8.420;2022-09-12T12:41:56;100062.59;;;24.64;52.52
27587;BME280;15019;49.002;8.420;2022-09-12T12:47:24;100057.22;;;24.67;57.62
27587;BME280;15019;49.002;8.420;2022-09-12T12:49:51;100059.09;;;24.65;53.80
27587;BME280;15019;49.002;8.420;2022-09-12T12:52:17;100057.22;;;24.67;52.84
27587;BME280;15019;49.002;8.420;2022-09-12T12:59:52;100059.44;;;24.59;56.50
27587;BME280;15019;49.002;8.420;2022-09-12T13:02:21;100047.44;;;24.58;54.54
27587;BME280;15019;49.002;8.420;2022-09-12T13:04:47;100043.19;;;24.42;56.24
27587;BME280;15019;49.002;8.420;2022-09-12T13:07:16;100045.78;;;24.42;57.65
27587;BME280;15019;49.002;8.420;2022-09-12T13:09:46;100035.56;;;24.54;54.25
27587;BME280;15019;49.002;8.420;2022-09-12T13:12:24;100042.44;;;24.55;55.59
27587;BME280;15019;49.002;8.420;2022-09-12T13:14:57;100034.13;;;24.35;60.05
27587;BME280;15019;49.002;8.420;2022-09-12T13:17:41;100029.47;;;24.40;57.25
27587;BME280;15019;49.002;8.420;2022-09-12T13:20:14;100031.16;;;24.41;58.67
27587;BME280;15019;49.002;8.420;2022-09-12T13:22:42;100034.47;;;24.43;56.04
27587;BME280;15019;49.002;8.420;2022-09-12T13:27:55;100017.25;;;24.42;59.75
27587;BME280;15019;49.002;8.420;2022-09-12T13:30:20;100019.38;;;24.50;52.77
27587;BME280;15019;49.002;8.420;2022-09-12T13:32:45;100014.84;;;24.54;55.25
27587;BME280;15019;49.002;8.420;2022-09-12T13:35:18;100007.25;;;24.51;52.70
27587;BME280;15019;49.002;8.420;2022-09-12T13:37:53;100007.59;;;24.59;54.74
27587;BME280;15019;49.002;8.420;2022-09-12T13:40:28;100009.81;;;24.65;53.11
27587;BME280;15019;49.002;8.420;2022-09-12T13:43:07;100000.38;;;24.64;55.67
27587;BME280;15019;49.002;8.420;2022-09-12T13:45:34;100001.78;;;24.55;53.87
27587;BME280;15019;49.002;8.420;2022-09-12T13:48:00;99995.38;;;24.61;53.56
27587;BME280;15019;49.002;8.420;2022-09-12T13:50:31;99990.75;;;24.52;56.92
27587;BME280;15019;49.002;8.420;2022-09-12T13:52:58;99990.94;;;24.49;53.97
27587;BME280;15019;49.002;8.420;2022-09-12T13:57:56;99984.56;;;24.54;51.05
27587;BME280;15019;49.002;8.420;2022-09-12T14:00:22;99986.47;;;24.65;50.76
27587;BME280;15019;49.002;8.420;2022-09-12T14:02:47;99987.84;;;24.70;49.14
27587;BME280;15019;49.002;8.420;2022-09-12T14:05:16;99987.75;;;24.72;48.19
27587;BME280;15019;49.002;8.420;2022-09-12T14:07:56;99985.16;;;24.72;50.09
27587;BME280;15019;49.002;8.420;2022-09-12T14:10:32;99979.22;;;24.70;48.58
27587;BME280;15019;49.002;8.420;2022-09-12T14:15:43;99982.19;;;24.78;46.71
27587;BME280;15019;49.002;8.420;2022-09-12T14:18:18;99973.66;;;24.76;47.22
27587;BME280;15019;49.002;8.420;2022-09-12T14:20:46;99975.72;;;24.71;46.27
27587;BME280;15019;49.002;8.420;2022-09-12T14:23:28;99970.53;;;24.71;48.21
27587;BME280;15019;49.002;8.420;2022-09-12T14:25:56;99959.13;;;24.73;46.45
27587;BME280;15019;49.002;8.420;2022-09-12T14:28:22;99961.81;;;24.72;50.55
27587;BME280;15019;49.002;8.420;2022-09-12T14:30:57;99959.53;;;24.67;50.03
27587;BME280;15019;49.002;8.420;2022-09-12T14:33:24;99958.13;;;24.76;48.77
27587;BME280;15019;49.002;8.420;2022-09-12T14:35:50;99952.59;;;24.68;50.85
27587;BME280;15019;49.002;8.420;2022-09-12T14:40:42;99955.34;;;24.79;49.07
27587;BME280;15019;49.002;8.420;2022-09-12T14:43:24;99959.97;;;24.74;52.22
27587;BME280;15019;49.002;8.420;2022-09-12T14:45:55;99948.69;;;24.61;51.27
27587;BME280;15019;49.002;8.420;2022-09-12T14:48:21;99945.59;;;24.56;50.61
27587;BME280;15019;49.002;8.420;2022-09-12T14:50:50;99945.00;;;24.65;50.40
27587;BME280;15019;49.002;8.420;2022-09-12T14:55:49;99942.25;;;25.07;46.40
27587;BME280;15019;49.002;8.420;2022-09-12T14:58:33;99938.94;;;25.05;46.01
27587;BME280;15019;49.002;8.420;2022-09-12T15:03:33;99931.00;;;24.94;47.55
27587;BME280;15019;49.002;8.420;2022-09-12T15:05:59;99930.34;;;24.91;48.24
27587;BME280;15019;49.002;8.420;2022-09-12T15:08:26;99929.16;;;24.96;45.95
27587;BME280;15019;49.002;8.420;2022-09-12T15:10:51;99928.97;;;24.99;46.56
27587;BME280;15019;49.002;8.420;2022-09-12T15:13:18;99921.19;;;24.99;47.74
27587;BME280;15019;49.002;8.420;2022-09-12T15:16:01;99920.19;;;24.88;47.12